WetterOnline ( http://www.wetteronline.de )

Wetter aktuell Dauchingen

Aktuelles Wetter: Klippeneck (975m)

6-stündlich | Neueste Meldungen
Ortszeit Temperatur Wetter
Do, 21.02. 13:00 10.0° C fast wolkenlos
Do, 21.02. 7:00 3.6° C wolkenlos
Do, 21.02. 1:00 4.9° C bedeckt
Mi, 20.02. 19:00 3.0° C fast wolkenlos
Mi, 20.02. 13:00 7.7° C wolkig
Mi, 20.02. 7:00 3.6° C bewölkt
Mi, 20.02. 1:00 1.9° C leicht bewölkt
Di, 19.02. 19:00 4.6° C bedeckt
Ortszeit Temperatur Wetter
Do, 21.02. 17:00 10.3° C bedeckt
Do, 21.02. 16:50 10.3° C bedeckt
Do, 21.02. 16:40 10.8° C bewölkt
Do, 21.02. 16:30 10.6° C bewölkt
Do, 21.02. 16:20 10.6° C bewölkt
Do, 21.02. 16:10 11.1° C bedeckt
Do, 21.02. 16:00 10.8° C bedeckt
Do, 21.02. 15:30 11.5° C wolkig
Do, 21.02. 15:00 10.8° C leicht bewölkt
Do, 21.02. 14:30 11.0° C wolkenlos
Do, 21.02. 14:00 11.0° C wolkenlos
Ortszeit Relative Feuchte Sichtweite
Do, 21.02. 13:00 50% 15 km
Do, 21.02. 7:00 84% 21 km
Do, 21.02. 1:00 79% 13 km
Mi, 20.02. 19:00 83% 24 km
Mi, 20.02. 13:00 63% 22 km
Mi, 20.02. 7:00 84% 23 km
Mi, 20.02. 1:00 96% 9 km
Di, 19.02. 19:00 81% 20 km
Ortszeit Relative Feuchte Sichtweite
Do, 21.02. 17:00 41% 60 km
Do, 21.02. 16:50 41% -
Do, 21.02. 16:40 38% -
Do, 21.02. 16:30 39% 35 km
Do, 21.02. 16:20 39% -
Do, 21.02. 16:10 40% -
Do, 21.02. 16:00 41% 50 km
Do, 21.02. 15:30 47% 29 km
Do, 21.02. 15:00 50% 30 km
Do, 21.02. 14:30 46% 14 km
Do, 21.02. 14:00 44% 22 km
Ortszeit Niederschlagsmenge Niederschlagsart
Do, 21.02. 13:00 0.0 l/m2 in 6 Std. -
Do, 21.02. 7:00 0.0 l/m2 in 12 Std. -
Do, 21.02. 1:00 0.0 l/m2 in 6 Std. -
Mi, 20.02. 19:00 0.0 l/m2 in 12 Std. -
Mi, 20.02. 13:00 0.0 l/m2 in 6 Std. -
Mi, 20.02. 7:00 0.1 l/m2 in 12 Std. -
Mi, 20.02. 1:00 0.1 l/m2 in 6 Std. Sprühregen
Di, 19.02. 19:00 0.0 l/m2 in 12 Std. -
Ortszeit Niederschlagsmenge Niederschlagsart
Do, 21.02. 17:00 0.0 l/m2 in 1 Std. -
Do, 21.02. 16:50 keine Meldung -
Do, 21.02. 16:40 keine Meldung -
Do, 21.02. 16:30 0.0 l/m2 in 1 Std. -
Do, 21.02. 16:20 keine Meldung -
Do, 21.02. 16:10 keine Meldung -
Do, 21.02. 16:00 0.0 l/m2 in 1 Std. -
Do, 21.02. 15:30 0.0 l/m2 in 1 Std. -
Do, 21.02. 15:00 0.0 l/m2 in 1 Std. -
Do, 21.02. 14:30 0.0 l/m2 in 1 Std. -
Do, 21.02. 14:00 0.0 l/m2 in 1 Std. -
Ortszeit Stärke Spitze Richtung
km/h Bft. km/h Grad Sektor
Do, 21.02. 13:00 11 2 22 280° W
Do, 21.02. 7:00 6 1 13 230° SW
Do, 21.02. 1:00 7 2 14 230° SW
Mi, 20.02. 19:00 4 1 22 90° O
Mi, 20.02. 13:00 9 2 22 240° SW
Mi, 20.02. 7:00 13 3 20 260° W
Mi, 20.02. 1:00 7 2 17 290° W
Di, 19.02. 19:00 9 2 35 300° NW
Ortszeit Stärke Spitze Richtung
km/h Bft. km/h Grad Sektor
Do, 21.02. 17:00 17 3 31 280° W
Do, 21.02. 16:50 17 3 - 280° W
Do, 21.02. 16:40 18 3 - 280° W
Do, 21.02. 16:30 22 4 29 290° W
Do, 21.02. 16:20 22 4 - 290° W
Do, 21.02. 16:10 18 3 - 280° W
Do, 21.02. 16:00 17 3 26 280° W
Do, 21.02. 15:30 11 2 17 280° W
Do, 21.02. 15:00 11 2 25 270° W
Do, 21.02. 14:30 14 3 25 280° W
Do, 21.02. 14:00 15 3 22 270° W
Ortszeit Untergrenze Bedeckung Gattung
total tief tief mittel hoch
Do, 21.02. 13:00 6000 m 1/8 1/8 - - -
Do, 21.02. 7:00 - 0/8 0/8 - - -
Do, 21.02. 1:00 3000 m 8/8 8/8 - - -
Mi, 20.02. 19:00 9000 m 1/8 0/8 - - -
Mi, 20.02. 13:00 540 m 6/8 6/8 - - -
Mi, 20.02. 7:00 480 m 7/8 7/8 - - -
Mi, 20.02. 1:00 360 m 4/8 2/8 - - -
Di, 19.02. 19:00 870 m 8/8 8/8 - - -
Ortszeit Bedeckungsgrad in Achtel und Wolkenuntergrenze
Do, 21.02. 17:00 5(3900m) 8(4800m)
Do, 21.02. 16:50 5(3900m) 8(4800m)
Do, 21.02. 16:40 2(3900m) 7(4800m)
Do, 21.02. 16:30 7(5100m)
Do, 21.02. 16:20 7(5100m)
Do, 21.02. 16:10 8(5100m) 8(7800m)
Do, 21.02. 16:00 8(5100m) 8(7800m) 8(8400m)
Do, 21.02. 15:30 2(1260m) 8(7800m) 8(8400m)
Do, 21.02. 15:00 2(1200m) 5(5700m) 5(6300m)
Do, 21.02. 14:30 keine Wolken
Do, 21.02. 14:00 keine Wolken
Ortszeit Stationsdruck (hPa) Tendenz (hPa in 3 Std.)
Do, 21.02. 13:00 915 0,0
Do, 21.02. 7:00 914 + 0,4
Do, 21.02. 1:00 913 + 0,6
Mi, 20.02. 19:00 912 + 0,5
Mi, 20.02. 13:00 911 + 0,6
Mi, 20.02. 7:00 909 + 0,3
Mi, 20.02. 1:00 909 + 0,1
Di, 19.02. 19:00 909 + 0,6
Ortszeit Stationsdruck (hPa) Tendenz (hPa in 3 Std.)
Do, 21.02. 17:00 915 + 0,1
Do, 21.02. 16:50 915 keine Meldung
Do, 21.02. 16:40 915 keine Meldung
Do, 21.02. 16:30 915 - 0,4
Do, 21.02. 16:20 915 keine Meldung
Do, 21.02. 16:10 914 keine Meldung
Do, 21.02. 16:00 914 - 0,6
Do, 21.02. 15:30 915 - 0,5
Do, 21.02. 15:00 915 - 0,6
Do, 21.02. 14:30 915 - 0,7
Do, 21.02. 14:00 915 - 0,6
Ortszeit Schneehöhe (cm)
Do, 21.02. 13:00 9
Do, 21.02. 7:00 9
Do, 21.02. 1:00 9
Mi, 20.02. 19:00 9
Mi, 20.02. 13:00 10
Mi, 20.02. 7:00 11
Mi, 20.02. 1:00 11
Di, 19.02. 19:00 11
Ortszeit Schneehöhe (cm)
Do, 21.02. 17:00 7
Do, 21.02. 16:50 7
Do, 21.02. 16:40 7
Do, 21.02. 16:30 7
Do, 21.02. 16:20 7
Do, 21.02. 16:10 8
Do, 21.02. 16:00 8
Do, 21.02. 15:30 8
Do, 21.02. 15:00 8
Do, 21.02. 14:30 8
Do, 21.02. 14:00 8
Link zu dieser Seite / Seite empfehlen

Das Wetter in ...